Time;durP1;ratioP1;P1;durP2;ratioP2;P2;SDS_P1;SDS_P2;PMS_P1;PMS_P2;Temp;Humidity;BMP_temperature;BMP_pressure;BME280_temperature;BME280_humidity;BME280_pressure;Samples;Min_cycle;Max_cycle;Signal;HPM_P1;HPM_P2
2021/04/05 00:01:06;;;;;;;5.63;3.93;;;7.80;47.30;;;7.96;41.22;97413.41;4946408;29;20244;-45
2021/04/05 00:03:34;;;;;;;8.40;4.43;;;7.70;47.90;;;7.88;41.91;97414.97;4946898;29;20047;-43
2021/04/05 00:06:02;;;;;;;9.30;4.63;;;7.60;48.10;;;7.92;41.33;97412.03;4947762;29;20059;-44
2021/04/05 00:08:29;;;;;;;9.37;5.30;;;7.60;47.80;;;7.86;41.66;97409.00;4949098;28;20069;-44
2021/04/05 00:10:57;;;;;;;9.37;5.20;;;7.60;48.40;;;7.89;41.07;97405.25;4946706;29;20051;-48
2021/04/05 00:13:32;;;;;;;9.83;4.03;;;7.70;47.80;;;7.88;41.42;97407.03;4948986;29;20117;-44
2021/04/05 00:15:59;;;;;;;8.03;4.20;;;7.60;48.60;;;7.87;41.50;97402.72;4947973;29;20384;-45
2021/04/05 00:18:27;;;;;;;7.53;4.47;;;7.60;48.20;;;7.86;41.97;97398.41;4930640;29;20077;-45
2021/04/05 00:21:05;;;;;;;8.53;4.23;;;7.60;48.80;;;7.81;42.29;97397.19;4946272;29;20280;-44
2021/04/05 00:23:34;;;;;;;11.60;4.40;;;7.50;48.50;;;7.76;41.96;97384.38;4947546;29;20047;-44
2021/04/05 00:26:03;;;;;;;6.50;4.27;;;7.50;49.10;;;7.82;41.90;97391.72;4947775;29;20070;-44
2021/04/05 00:28:31;;;;;;;6.20;4.27;;;7.40;49.20;;;7.81;41.87;97387.44;4946685;29;20051;-45
2021/04/05 00:31:00;;;;;;;8.10;4.13;;;7.40;49.10;;;7.76;42.24;97396.81;4946403;29;20383;-43
2021/04/05 00:33:28;;;;;;;8.13;4.40;;;7.40;49.50;;;7.75;41.95;97395.97;4947709;29;20252;-43
2021/04/05 00:35:55;;;;;;;7.40;4.93;;;7.30;49.90;;;7.76;42.32;97394.16;4947514;29;20055;-43
2021/04/05 00:38:24;;;;;;;9.13;4.57;;;7.30;49.70;;;7.73;42.98;97389.97;4949157;29;20059;-44
2021/04/05 00:41:04;;;;;;;13.97;5.50;;;7.30;50.40;;;7.73;43.31;97391.78;4946237;29;20042;-44
2021/04/05 00:43:34;;;;;;;8.20;4.20;;;7.30;50.10;;;7.73;42.44;97384.66;4947166;29;20059;-45
2021/04/05 00:46:04;;;;;;;7.93;4.07;;;7.40;50.20;;;7.78;42.25;97378.94;4947131;29;20066;-43
2021/04/05 00:48:31;;;;;;;8.40;4.63;;;7.40;50.90;;;7.80;41.85;97369.03;4931211;29;20074;-45
2021/04/05 00:51:08;;;;;;;9.33;5.03;;;7.40;49.90;;;7.84;43.02;97357.97;4915399;29;20355;-45
2021/04/05 00:53:44;;;;;;;8.30;4.97;;;7.40;50.40;;;7.87;42.52;97355.03;4947296;29;20069;-45
2021/04/05 00:56:16;;;;;;;8.03;4.33;;;7.60;50.10;;;7.93;42.15;97353.59;4945653;29;20070;-43
2021/04/05 00:58:43;;;;;;;9.43;5.00;;;7.70;49.60;;;7.96;42.56;97353.25;4928721;29;20579;-44
2021/04/05 01:01:20;;;;;;;9.67;5.10;;;7.70;49.70;;;8.01;43.04;97343.03;4929762;29;20043;-43
2021/04/05 01:03:49;;;;;;;7.10;4.53;;;7.70;49.80;;;7.98;42.68;97339.88;4946553;29;20248;-44
2021/04/05 01:06:33;;;;;;;10.43;5.33;;;7.70;49.60;;;7.94;43.29;97341.97;4946383;29;20051;-43
2021/04/05 01:09:04;;;;;;;9.35;5.00;;;7.60;50.20;;;7.89;43.23;97334.50;4946373;29;20448;-43
2021/04/05 01:11:32;;;;;;;7.57;4.43;;;7.60;49.90;;;7.92;42.54;97322.75;4947495;29;20059;-44
2021/04/05 01:14:01;;;;;;;6.80;4.90;;;7.60;50.00;;;7.93;42.62;97319.13;4947716;29;20051;-44
2021/04/05 01:16:30;;;;;;;7.47;4.47;;;7.60;50.10;;;7.95;42.95;97322.47;4946771;29;20077;-43
2021/04/05 01:19:01;;;;;;;7.47;4.30;;;7.60;50.20;;;7.94;43.07;97325.25;4945261;29;20341;-44
2021/04/05 01:21:29;;;;;;;11.10;4.90;;;7.50;50.50;;;7.96;42.85;97324.09;4946952;28;20054;-43
2021/04/05 01:23:57;;;;;;;8.10;4.73;;;7.60;50.00;;;7.99;42.78;97323.00;4950975;28;20049;-44
2021/04/05 01:26:24;;;;;;;10.40;4.80;;;7.70;49.90;;;8.00;42.83;97320.16;4933902;29;20051;-47
2021/04/05 01:28:52;;;;;;;9.77;4.80;;;7.70;49.60;;;7.93;43.92;97315.63;4950313;29;20316;-44
2021/04/05 01:31:19;;;;;;;12.27;5.10;;;7.60;50.60;;;7.93;43.60;97311.16;4950120;29;20245;-46
2021/04/05 01:33:48;;;;;;;10.63;5.00;;;7.70;50.00;;;7.98;43.37;97303.56;4951030;29;20051;-44
2021/04/05 01:36:18;;;;;;;6.80;4.87;;;7.70;49.70;;;7.97;43.36;97295.78;4950693;29;20357;-47
2021/04/05 01:38:54;;;;;;;9.27;4.87;;;7.70;50.20;;;7.97;43.15;97299.28;4949792;29;20062;-47
2021/04/05 01:41:31;;;;;;;13.90;4.97;;;7.70;50.60;;;8.03;43.22;97300.47;4950320;29;20117;-43
2021/04/05 01:44:00;;;;;;;13.37;4.60;;;7.70;50.40;;;8.01;43.06;97289.19;4950572;29;20061;-46
2021/04/05 01:46:30;;;;;;;11.20;5.50;;;7.70;50.30;;;7.96;43.19;97284.34;4950339;29;20342;-44
2021/04/05 01:49:01;;;;;;;9.77;5.17;;;7.70;50.50;;;7.97;43.57;97279.88;4950599;29;20062;-45
2021/04/05 01:51:28;;;;;;;8.27;5.10;;;7.70;50.50;;;7.97;42.99;97285.16;4951028;29;20062;-44
2021/04/05 01:53:57;;;;;;;9.97;5.10;;;7.60;50.20;;;7.99;43.02;97281.41;4950486;29;20400;-43
2021/04/05 01:56:25;;;;;;;9.67;5.07;;;7.70;50.30;;;7.99;43.17;97259.38;4933119;29;20047;-45
2021/04/05 01:58:54;;;;;;;13.73;5.30;;;7.80;50.40;;;7.96;43.90;97246.41;4950940;29;20159;-45
2021/04/05 02:01:27;;;;;;;8.43;5.90;;;7.70;51.30;;;8.01;43.20;97244.13;4950113;29;20055;-44
2021/04/05 02:03:57;;;;;;;12.60;5.30;;;7.80;50.30;;;8.01;43.48;97230.88;4948871;29;20348;-44
2021/04/05 02:06:31;;;;;;;13.13;5.50;;;7.90;49.90;;;8.02;44.06;97220.09;4934353;29;20055;-45
2021/04/05 02:08:59;;;;;;;9.40;5.10;;;7.90;50.00;;;8.05;43.36;97218.97;4950306;29;20601;-45
2021/04/05 02:11:38;;;;;;;11.70;5.27;;;7.90;50.10;;;8.07;43.40;97222.31;4932251;29;20055;-46
2021/04/05 02:14:08;;;;;;;10.30;4.63;;;8.00;50.00;;;8.12;42.98;97217.34;4949435;29;20065;-47
2021/04/05 02:16:37;;;;;;;7.90;4.97;;;8.00;50.00;;;8.17;43.67;97223.03;4949303;29;20055;-44
2021/04/05 02:19:05;;;;;;;10.47;5.80;;;8.00;49.70;;;8.19;42.69;97210.44;4949233;29;20234;-46
2021/04/05 02:21:32;;;;;;;11.50;5.70;;;8.00;49.50;;;8.21;42.84;97221.72;4948213;29;20051;-44
2021/04/05 02:24:06;;;;;;;9.40;5.50;;;8.10;49.50;;;8.25;42.90;97211.63;4949244;29;20226;-46
2021/04/05 02:26:36;;;;;;;7.57;5.00;;;8.10;49.60;;;8.24;42.93;97217.94;4932920;29;20350;-45
2021/04/05 02:29:05;;;;;;;10.57;4.43;;;8.10;49.80;;;8.25;43.28;97216.94;4949969;29;20628;-44
2021/04/05 02:31:36;;;;;;;8.37;5.13;;;8.00;49.50;;;8.24;42.83;97218.75;4949226;28;20051;-49
2021/04/05 02:34:10;;;;;;;8.20;4.87;;;8.00;49.80;;;8.24;42.50;97204.69;4948887;29;20067;-45
2021/04/05 02:36:39;;;;;;;9.93;5.33;;;7.90;49.90;;;8.15;42.97;97200.31;4932411;29;20051;-44
2021/04/05 02:39:11;;;;;;;12.90;5.03;;;7.80;50.00;;;8.11;43.05;97205.09;4932770;29;20241;-44
2021/04/05 02:41:42;;;;;;;8.73;4.43;;;7.80;50.00;;;8.11;42.86;97199.78;4949789;29;20043;-47
2021/04/05 02:44:10;;;;;;;10.37;5.20;;;7.80;49.80;;;8.08;42.86;97194.78;4932539;29;20277;-48
2021/04/05 02:46:40;;;;;;;10.57;5.47;;;7.70;49.90;;;8.04;42.97;97201.38;4932017;29;20253;-44
2021/04/05 02:49:14;;;;;;;11.50;4.97;;;7.70;50.20;;;8.04;43.09;97196.09;4950681;29;20058;-45
2021/04/05 02:51:49;;;;;;;;;;;7.70;50.40;;;7.98;43.69;97199.38;4934490;29;20226;-49
2021/04/05 02:54:21;;;;;;;8.57;4.20;;;7.60;51.00;;;8.03;43.27;97189.13;4949964;29;19919;-46
2021/04/05 02:56:49;;;;;;;8.37;4.33;;;7.50;50.70;;;8.01;42.94;97185.81;4949197;29;20352;-44
2021/04/05 02:59:20;;;;;;;11.47;5.57;;;7.50;50.50;;;7.99;43.20;97193.09;4932875;29;20053;-46
2021/04/05 03:01:48;;;;;;;11.53;5.00;;;7.50;50.70;;;7.92;42.49;97181.44;4949018;29;20059;-45
2021/04/05 03:04:17;;;;;;;10.70;5.30;;;7.40;50.60;;;7.84;43.11;97182.22;4931746;29;20073;-44
2021/04/05 03:06:44;;;;;;;9.47;4.47;;;7.30;51.00;;;7.80;42.72;97184.34;4948341;29;20051;-45
2021/04/05 03:09:14;;;;;;;11.60;5.53;;;7.20;51.50;;;7.73;43.17;97174.50;4933274;29;20051;-44
2021/04/05 03:11:44;;;;;;;10.07;4.63;;;7.10;52.40;;;7.62;43.51;97171.13;4948036;29;20066;-45
2021/04/05 03:14:13;;;;;;;7.60;5.13;;;7.00;52.90;;;7.57;43.69;97154.84;4931930;29;20063;-44
2021/04/05 03:16:42;;;;;;;8.93;4.63;;;6.90;52.10;;;7.49;43.92;97144.22;4932021;29;20058;-45
2021/04/05 03:19:12;;;;;;;9.73;4.93;;;7.00;52.10;;;7.43;43.93;97134.25;4949953;29;20108;-44
2021/04/05 03:21:43;;;;;;;7.93;4.57;;;7.00;51.90;;;7.37;44.60;97126.91;4948511;29;20055;-45
2021/04/05 03:24:13;;;;;;;7.97;4.93;;;6.90;52.50;;;7.24;45.10;97122.00;4931146;29;20055;-48
2021/04/05 03:26:40;;;;;;;9.53;4.33;;;6.80;53.20;;;7.16;45.07;97114.00;4948535;29;20047;-44
2021/04/05 03:29:13;;;;;;;7.53;4.70;;;6.80;53.80;;;7.05;45.24;97113.22;4949499;29;20062;-46
2021/04/05 03:31:42;;;;;;;13.43;5.20;;;6.60;53.70;;;7.01;45.33;97119.81;4915682;29;20055;-43
2021/04/05 03:34:25;;;;;;;10.40;5.20;;;6.50;54.00;;;6.97;45.96;97112.34;4931007;29;20073;-45
2021/04/05 03:37:04;;;;;;;9.20;4.90;;;6.50;54.10;;;7.04;45.51;97100.16;4931854;29;20050;-44
2021/04/05 03:39:31;;;;;;;7.80;4.07;;;6.60;53.20;;;7.09;44.66;97097.88;4946999;29;20063;-43
2021/04/05 03:42:10;;;;;;;10.13;4.13;;;6.70;52.90;;;7.14;45.03;97095.59;4946350;29;20051;-44
2021/04/05 03:44:48;;;;;;;9.73;5.53;;;6.90;52.40;;;7.21;44.80;97088.72;4929971;29;20356;-46
2021/04/05 03:47:57;;;;;;;9.10;4.73;;;7.00;52.30;;;7.14;46.04;97090.31;4948218;29;20059;-44
2021/04/05 03:50:52;;;;;;;8.67;4.47;;;6.90;53.00;;;7.13;44.82;97093.09;4934361;29;20451;-44
2021/04/05 03:53:22;;;;;;;8.48;4.75;;;6.70;53.20;;;7.10;45.78;97087.13;4947461;29;20055;-46
2021/04/05 03:55:58;;;;;;;11.93;5.40;;;6.70;53.30;;;7.06;45.18;97087.59;4930917;29;20051;-48
2021/04/05 03:58:30;;;;;;;7.40;4.67;;;6.60;53.30;;;7.03;45.33;97087.91;4947972;29;20240;-47
2021/04/05 04:01:07;;;;;;;10.68;4.93;;;6.60;53.50;;;7.02;45.60;97083.59;4946243;29;20234;-46
2021/04/05 04:04:46;;;;;;;10.37;4.93;;;6.60;53.90;;;7.08;45.43;97077.69;4931317;29;20051;-45
2021/04/05 04:09:14;;;;;;;9.67;4.57;;;6.80;53.20;;;7.14;45.61;97053.25;4932546;29;20046;-45
2021/04/05 04:11:47;;;;;;;8.63;5.00;;;6.90;53.20;;;7.19;46.15;97056.28;4945880;29;20063;-47
2021/04/05 04:14:17;;;;;;;9.60;4.90;;;7.00;52.90;;;7.23;44.87;97052.34;4930587;29;20057;-45
2021/04/05 04:16:47;;;;;;;10.10;4.80;;;7.00;52.40;;;7.22;45.32;97047.19;4930635;29;20059;-46
2021/04/05 04:19:16;;;;;;;7.60;4.57;;;6.90;52.60;;;7.21;44.77;97037.56;4931304;29;20051;-45
2021/04/05 04:21:47;;;;;;;9.73;4.30;;;6.80;53.00;;;7.14;45.51;97037.38;4929805;29;20061;-45
2021/04/05 04:24:16;;;;;;;12.93;4.93;;;6.70;53.60;;;7.11;44.92;97029.72;4947422;29;20077;-48
2021/04/05 04:26:44;;;;;;;7.33;4.67;;;6.70;53.40;;;7.12;44.95;97034.06;4946741;29;20067;-44
2021/04/05 04:29:20;;;;;;;9.70;5.87;;;6.70;53.20;;;7.03;45.98;97029.66;4947361;29;20069;-45
2021/04/05 04:31:48;;;;;;;11.00;5.33;;;6.60;53.70;;;7.01;45.69;97029.00;4962282;23;20043;-52
2021/04/05 04:34:19;;;;;;;8.80;4.67;;;6.50;53.60;;;7.02;46.07;97028.03;4946818;29;20051;-49
2021/04/05 04:36:48;;;;;;;11.83;4.27;;;6.50;53.60;;;6.99;45.66;97021.19;4946501;29;20061;-50
2021/04/05 04:39:18;;;;;;;7.50;4.63;;;6.50;53.90;;;6.98;45.81;97008.13;4931954;29;20051;-51
2021/04/05 04:41:48;;;;;;;8.83;4.30;;;6.50;54.40;;;6.94;45.44;97004.13;4930348;29;20048;-52
2021/04/05 04:44:15;;;;;;;6.53;4.50;;;6.40;54.20;;;6.93;45.47;97003.31;4930163;29;20252;-51
2021/04/05 04:46:43;;;;;;;7.37;4.80;;;6.40;54.20;;;6.88;45.14;97014.34;4946920;29;20571;-51
2021/04/05 04:49:12;;;;;;;10.57;5.83;;;6.30;54.60;;;6.85;45.72;97014.66;4945883;29;20047;-52
2021/04/05 04:51:41;;;;;;;9.30;5.67;;;6.30;54.30;;;6.87;46.36;97014.50;4945833;29;20058;-54
2021/04/05 04:54:10;;;;;;;9.30;5.10;;;6.30;54.30;;;6.85;46.41;97016.47;4928306;29;20236;-49
2021/04/05 04:56:38;;;;;;;9.17;4.87;;;6.30;54.90;;;6.84;46.01;97006.84;4945654;29;20383;-52
2021/04/05 04:59:11;;;;;;;12.90;5.20;;;6.30;54.20;;;6.84;45.92;97005.06;4947777;29;20059;-53
2021/04/05 05:01:44;;;;;;;9.27;3.73;;;6.30;54.90;;;6.80;46.00;96994.94;4928393;29;20047;-55
2021/04/05 05:04:26;;;;;;;11.27;4.90;;;6.30;54.70;;;6.78;47.02;96994.25;4947250;29;20047;-53
2021/04/05 05:06:57;;;;;;;8.53;5.30;;;6.30;55.00;;;6.76;45.84;96988.28;4945752;29;20051;-52
2021/04/05 05:09:25;;;;;;;7.80;4.60;;;6.30;54.50;;;6.75;46.25;96976.06;4946827;29;20348;-53
2021/04/05 05:11:53;;;;;;;9.37;4.67;;;6.30;54.80;;;6.81;46.79;96976.25;4929246;29;20054;-50
2021/04/05 05:14:21;;;;;;;8.50;4.33;;;6.30;54.80;;;6.83;46.33;96968.19;4948071;29;20058;-54
2021/04/05 05:16:50;;;;;;;10.33;4.43;;;6.30;54.60;;;6.85;45.82;96963.56;4931776;29;20059;-48
2021/04/05 05:19:19;;;;;;;10.93;4.63;;;6.30;54.70;;;6.75;46.68;96960.19;4946405;29;20050;-47
2021/04/05 05:21:57;;;;;;;7.77;4.53;;;6.20;55.30;;;6.74;47.25;96956.69;4946113;29;20329;-51
2021/04/05 05:24:29;;;;;;;7.77;4.20;;;6.20;55.60;;;6.73;46.69;96959.47;4946602;29;20044;-48
2021/04/05 05:26:57;;;;;;;11.93;5.43;;;6.20;55.30;;;6.76;46.92;96957.34;4930531;29;20069;-52
2021/04/05 05:29:27;;;;;;;8.13;4.77;;;6.30;55.00;;;6.77;46.28;96951.09;4930796;29;20538;-51
2021/04/05 05:31:55;;;;;;;7.13;4.40;;;6.30;55.10;;;6.76;47.30;96945.97;4928380;29;20062;-49
2021/04/05 05:34:24;;;;;;;8.07;4.13;;;6.30;55.60;;;6.78;46.66;96938.69;4946339;29;20057;-47
2021/04/05 05:36:52;;;;;;;8.37;4.40;;;6.40;55.00;;;6.81;47.24;96925.16;4929842;29;20051;-51
2021/04/05 05:39:20;;;;;;;11.73;5.73;;;6.40;54.90;;;6.81;47.00;96923.34;4947252;29;20051;-52
2021/04/05 05:42:36;;;;;;;13.63;4.83;;;6.40;55.50;;;6.88;47.10;96926.19;4947427;29;20069;-49
2021/04/05 05:45:08;;;;;;;9.90;5.33;;;6.50;55.70;;;6.93;46.69;96926.56;4947421;29;20055;-48
2021/04/05 05:48:08;;;;;;;10.93;5.10;;;6.50;54.90;;;7.00;46.48;96922.31;4929849;29;20057;-51
2021/04/05 05:51:34;;;;;;;8.57;5.37;;;6.60;55.00;;;7.03;47.26;96926.44;4930285;29;20349;-53
2021/04/05 05:54:23;;;;;;;;;;;6.70;55.30;;;7.05;47.48;96922.66;4922401;29;20058;-50
2021/04/05 05:57:21;;;;;;;7.80;4.43;;;6.70;55.20;;;7.16;47.39;96920.75;4930052;29;19918;-51
2021/04/05 06:00:04;;;;;;;7.13;4.40;;;6.90;54.40;;;7.14;47.14;96923.53;4943783;29;20501;-50
2021/04/05 06:02:54;;;;;;;9.13;4.30;;;6.80;54.60;;;7.17;46.42;96922.38;4946954;29;20049;-49
2021/04/05 06:06:00;;;;;;;8.23;4.20;;;6.80;54.80;;;7.18;46.96;96924.88;4914247;29;20051;-49
2021/04/05 06:09:00;;;;;;;9.70;6.67;;;6.90;54.80;;;7.23;46.64;96925.25;4948486;29;20055;-53
2021/04/05 06:11:55;;;;;;;10.23;4.53;;;6.90;54.70;;;7.26;46.62;96914.34;4950540;29;20059;-47
2021/04/05 06:15:05;;;;;;;10.00;4.63;;;6.90;54.40;;;7.31;46.73;96913.88;4950400;29;20446;-48
2021/04/05 06:18:11;;;;;;;7.27;4.97;;;7.00;54.60;;;7.28;46.61;96907.06;4949339;29;20063;-50
2021/04/05 06:21:01;;;;;;;8.43;4.80;;;7.00;54.50;;;7.30;46.93;96898.97;4917737;29;20054;-50
2021/04/05 06:23:51;;;;;;;10.40;5.03;;;7.10;54.30;;;7.38;46.85;96896.34;4932728;29;20051;-51
2021/04/05 06:26:53;;;;;;;10.20;4.70;;;7.10;54.60;;;7.46;47.33;96903.50;4948559;29;20062;-53
2021/04/05 06:29:45;;;;;;;11.43;4.73;;;7.20;54.60;;;7.49;46.71;96906.66;4950461;29;20051;-51
2021/04/05 06:33:18;;;;;;;9.63;4.77;;;7.20;54.30;;;7.59;46.01;96909.16;4948091;29;20051;-50
2021/04/05 06:36:12;;;;;;;9.20;4.33;;;7.30;54.60;;;7.66;46.65;96890.84;4915873;29;20067;-49
2021/04/05 06:39:08;;;;;;;8.83;5.30;;;7.30;54.10;;;7.70;46.35;96886.88;4949381;29;20055;-50
2021/04/05 06:41:50;;;;;;;9.53;5.20;;;7.40;54.30;;;7.73;46.67;96885.69;4947704;29;20070;-47
2021/04/05 06:45:08;;;;;;;15.20;5.00;;;7.40;54.20;;;7.73;46.53;96883.06;4950050;29;20348;-52
2021/04/05 06:47:53;;;;;;;8.67;4.43;;;7.40;54.30;;;7.75;46.59;96887.19;4950080;29;20051;-47
2021/04/05 06:50:51;;;;;;;8.90;5.83;;;7.50;54.60;;;7.79;46.92;96882.41;4948975;29;20371;-49
2021/04/05 06:53:34;;;;;;;7.83;5.30;;;7.60;54.40;;;7.82;46.70;96892.69;4949747;29;20071;-49
2021/04/05 06:56:10;;;;;;;11.50;5.50;;;7.50;54.60;;;7.81;46.42;96888.38;4949117;29;20058;-50
2021/04/05 06:59:18;;;;;;;13.07;5.17;;;7.40;54.50;;;7.85;46.73;96874.66;4932682;29;20066;-48
2021/04/05 07:02:27;;;;;;;9.13;5.70;;;7.50;55.60;;;7.85;46.90;96876.44;4933739;29;20053;-49
2021/04/05 07:05:17;;;;;;;11.00;4.47;;;7.50;55.80;;;7.86;47.74;96870.16;4946769;29;20051;-47
2021/04/05 07:08:07;;;;;;;6.97;4.60;;;7.60;56.00;;;7.81;48.06;96877.75;4948270;29;20070;-49
2021/04/05 07:11:15;;;;;;;8.87;4.57;;;7.60;56.20;;;7.70;49.08;96884.22;4933843;29;20061;-49
2021/04/05 07:14:16;;;;;;;8.90;6.33;;;7.50;57.40;;;7.69;49.56;96870.13;4948051;29;20055;-48
2021/04/05 07:16:59;;;;;;;9.53;5.37;;;7.50;57.20;;;7.89;48.29;96868.03;4947397;29;20051;-50
2021/04/05 07:20:12;;;;;;;10.20;5.57;;;7.70;56.20;;;7.85;48.84;96872.00;4931372;29;20063;-49
2021/04/05 07:23:05;;;;;;;10.50;4.90;;;7.80;55.90;;;7.80;48.97;96861.03;4947540;29;20059;-47
2021/04/05 07:26:17;;;;;;;9.23;5.00;;;7.90;55.30;;;7.74;48.75;96868.81;4933827;29;20069;-53
2021/04/05 07:29:22;;;;;;;11.50;5.13;;;7.90;55.30;;;7.88;48.59;96857.56;4946594;29;20380;-48
2021/04/05 07:32:29;;;;;;;12.30;5.07;;;8.00;55.10;;;8.04;48.27;96862.88;4947991;29;20405;-51
2021/04/05 07:35:28;;;;;;;9.63;4.80;;;8.20;55.20;;;7.94;48.73;96858.75;4929352;29;20063;-50
2021/04/05 07:38:28;;;;;;;12.03;5.77;;;8.20;55.10;;;8.24;48.67;96854.63;4932485;29;20055;-48
2021/04/05 07:41:55;;;;;;;15.63;6.00;;;8.50;55.20;;;8.36;48.68;96850.66;4948214;29;20051;-51
2021/04/05 07:44:45;;;;;;;15.93;5.63;;;8.70;54.50;;;8.54;48.38;96847.00;4886847;29;20056;-51
2021/04/05 07:47:43;;;;;;;9.00;5.80;;;8.90;54.60;;;8.48;47.83;96843.22;4930124;29;20059;-49
2021/04/05 07:50:13;;;;;;;11.63;5.30;;;8.90;53.50;;;8.64;47.71;96850.31;4946399;28;20065;-49
2021/04/05 07:53:31;;;;;;;10.27;5.90;;;9.00;53.10;;;8.77;47.18;96837.34;4947541;28;20067;-51
2021/04/05 07:56:14;;;;;;;13.03;6.50;;;9.10;53.30;;;8.92;47.50;96834.84;4913848;29;20070;-52
2021/04/05 07:59:14;;;;;;;12.40;5.30;;;9.30;53.00;;;8.91;47.59;96835.81;4930918;29;20047;-48
2021/04/05 08:01:48;;;;;;;11.67;4.30;;;9.40;52.60;;;9.03;47.24;96839.78;4942679;28;20063;-50
2021/04/05 08:04:43;;;;;;;16.27;5.80;;;9.50;52.20;;;9.19;46.63;96836.22;4959047;28;20460;-49
2021/04/05 08:07:27;;;;;;;9.70;5.00;;;9.70;52.10;;;9.22;46.27;96838.53;4945104;28;20051;-50
2021/04/05 08:10:08;;;;;;;14.35;5.85;;;9.70;51.90;;;9.35;46.70;96826.53;4938633;28;20066;-54
2021/04/05 08:13:22;;;;;;;17.33;7.33;;;9.80;52.10;;;9.34;46.38;96824.88;4941961;28;20082;-45
2021/04/05 08:16:14;;;;;;;8.37;5.50;;;9.80;52.10;;;9.26;46.77;96821.25;4957430;28;20046;-49
2021/04/05 08:19:00;;;;;;;12.90;5.30;;;9.70;52.30;;;9.23;47.08;96834.06;4956786;28;20110;-45
2021/04/05 08:21:41;;;;;;;11.43;6.30;;;9.70;52.80;;;9.34;46.89;96828.34;4964377;28;20054;-48
2021/04/05 08:25:03;;;;;;;12.03;6.23;;;9.70;52.60;;;9.26;46.25;96823.06;4950416;28;20065;-45
2021/04/05 08:28:10;;;;;;;11.77;5.72;;;9.70;51.20;;;9.29;46.85;96822.75;4965644;28;20054;-46
2021/04/05 08:31:21;;;;;;;16.43;7.03;;;9.70;52.60;;;9.26;46.54;96823.91;4951045;28;20058;-46
2021/04/05 08:34:13;;;;;;;14.10;6.97;;;9.60;52.50;;;9.14;46.95;96837.75;4929927;28;20070;-51
2021/04/05 08:36:46;;;;;;;13.87;7.10;;;9.50;53.10;;;9.14;47.17;96829.78;4964296;28;20259;-49
2021/04/05 08:39:25;;;;;;;12.27;6.78;;;9.40;53.10;;;9.05;47.11;96813.03;4967196;28;20058;-48
2021/04/05 08:42:30;;;;;;;14.60;7.17;;;9.40;53.10;;;9.19;46.85;96824.75;4966747;28;20161;-50
2021/04/05 08:45:29;;;;;;;10.82;7.28;;;9.40;53.00;;;9.12;47.34;96826.47;4965245;28;20061;-50
2021/04/05 08:48:09;;;;;;;12.10;6.63;;;9.40;53.50;;;9.13;47.23;96831.63;4950227;28;20341;-49
2021/04/05 08:50:43;;;;;;;12.23;6.77;;;9.40;53.40;;;9.02;47.55;96824.84;4943881;28;20250;-51
2021/04/05 08:53:12;;;;;;;18.10;7.03;;;9.30;53.90;;;9.21;47.25;96812.97;4942993;29;20047;-48
2021/04/05 08:55:42;;;;;;;13.63;6.97;;;9.40;53.50;;;9.11;47.09;96819.50;4945148;29;20039;-52
2021/04/05 08:58:34;;;;;;;14.77;6.87;;;9.30;53.40;;;9.11;47.23;96822.16;4945211;29;20043;-50
2021/04/05 09:01:11;;;;;;;12.77;6.27;;;9.30;53.40;;;9.12;46.06;96810.53;4946701;28;20055;-52
2021/04/05 09:03:44;;;;;;;11.27;6.13;;;9.30;52.60;;;9.08;46.87;96799.44;4945944;29;20058;-51
2021/04/05 09:06:18;;;;;;;15.20;5.90;;;9.30;53.10;;;9.22;45.45;96798.69;4981261;28;20244;-50
2021/04/05 09:08:46;;;;;;;;;;;9.50;51.30;;;9.25;43.44;96787.72;4968870;28;20069;-53
2021/04/05 09:11:14;;;;;;;12.43;6.13;;;9.60;48.40;;;9.34;43.28;96795.66;4944252;29;19918;-49
2021/04/05 09:13:53;;;;;;;12.40;5.10;;;9.60;48.50;;;9.41;41.91;96786.00;4946234;29;20057;-49
2021/04/05 09:17:15;;;;;;;9.77;5.20;;;9.80;46.60;;;9.43;41.92;96779.50;4929945;29;20264;-50
2021/04/05 09:20:03;;;;;;;13.67;6.37;;;9.70;47.00;;;9.67;41.94;96780.34;4948299;29;20253;-48
2021/04/05 09:23:07;;;;;;;12.83;5.07;;;9.90;47.00;;;9.67;40.24;96775.03;4946745;29;20398;-51
2021/04/05 09:26:07;;;;;;;9.63;4.90;;;10.00;45.20;;;9.72;39.78;96763.88;4947488;29;20059;-48
2021/04/05 09:28:39;;;;;;;6.80;3.97;;;10.00;43.70;;;9.74;40.24;96764.53;4961857;29;20345;-52
2021/04/05 09:31:51;;;;;;;14.63;5.40;;;10.00;44.20;;;9.99;39.82;96750.03;4945608;29;20051;-49
2021/04/05 09:34:42;;;;;;;14.50;6.30;;;10.20;44.40;;;10.15;39.43;96756.22;4961176;29;20065;-51
2021/04/05 09:37:46;;;;;;;17.13;8.93;;;10.40;44.00;;;10.27;39.05;96759.25;4928405;29;20055;-50
2021/04/05 09:40:37;;;;;;;11.20;5.40;;;10.50;44.10;;;10.10;37.60;96756.75;4954918;29;20049;-53
2021/04/05 09:43:10;;;;;;;8.60;3.80;;;10.40;42.10;;;9.84;37.93;96749.16;4944168;29;20051;-52
2021/04/05 09:46:03;;;;;;;6.82;4.88;;;10.20;41.70;;;9.91;38.08;96742.13;4964780;29;20055;-50
2021/04/05 09:48:50;;;;;;;8.37;5.07;;;10.30;41.70;;;10.04;38.21;96737.03;4963579;29;20062;-49
2021/04/05 09:51:44;;;;;;;10.40;5.40;;;10.50;42.00;;;10.17;37.65;96773.63;4937380;29;20053;-48
2021/04/05 09:54:37;;;;;;;8.63;3.92;;;10.70;41.10;;;10.14;36.90;96741.25;4959108;29;20260;-52
2021/04/05 09:57:27;;;;;;;9.90;3.90;;;10.70;41.20;;;10.10;35.77;96726.66;4956625;29;20047;-47
2021/04/05 09:59:58;;;;;;;12.10;4.37;;;10.60;39.00;;;10.06;35.09;96731.50;4964602;29;20057;-51
2021/04/05 10:02:51;;;;;;;7.43;4.87;;;10.60;38.30;;;10.07;35.09;96735.00;4928640;29;20055;-51
2021/04/05 10:05:21;;;;;;;8.50;4.63;;;10.80;37.90;;;10.14;36.08;96723.47;4935234;29;20051;-48
2021/04/05 10:07:50;;;;;;;9.57;4.70;;;10.70;39.00;;;10.19;35.62;96722.91;4944160;29;20051;-50
2021/04/05 10:10:21;;;;;;;10.50;4.60;;;10.80;39.00;;;10.17;36.29;96727.59;4927209;29;20056;-50
2021/04/05 10:12:53;;;;;;;8.67;4.67;;;10.80;39.50;;;10.26;36.80;96718.53;4910815;29;20083;-49
2021/04/05 10:15:31;;;;;;;9.23;4.70;;;10.80;40.00;;;10.16;36.76;96720.66;4945001;29;20065;-48
2021/04/05 10:18:00;;;;;;;6.93;4.33;;;10.70;40.10;;;10.19;37.19;96702.47;4926937;29;20067;-50
2021/04/05 10:20:31;;;;;;;11.70;5.80;;;10.80;40.40;;;10.39;37.38;96707.28;4942918;29;20047;-52
2021/04/05 10:23:12;;;;;;;13.37;5.07;;;10.90;41.10;;;10.24;37.22;96702.75;4945260;29;20055;-53
2021/04/05 10:26:03;;;;;;;9.37;5.33;;;10.80;40.50;;;10.34;37.16;96689.22;4943725;29;20075;-51
2021/04/05 10:28:35;;;;;;;12.23;5.47;;;10.90;40.50;;;10.42;37.89;96706.91;4945189;29;20066;-49
2021/04/05 10:31:09;;;;;;;8.90;5.43;;;10.90;41.50;;;10.24;37.62;96684.13;4945480;29;20063;-47
2021/04/05 10:33:42;;;;;;;9.05;4.45;;;10.70;41.30;;;10.46;37.39;96686.09;4946126;29;20070;-52
2021/04/05 10:36:15;;;;;;;11.63;4.63;;;10.90;40.70;;;10.42;37.44;96704.25;4929127;29;20070;-51
2021/04/05 10:38:43;;;;;;;9.00;5.20;;;11.00;40.80;;;10.44;36.72;96692.41;4928923;29;20079;-50
2021/04/05 10:41:16;;;;;;;9.53;5.10;;;11.00;40.10;;;10.53;37.41;96697.66;4945431;29;20347;-52
2021/04/05 10:43:57;;;;;;;10.60;4.80;;;11.10;41.00;;;10.63;37.06;96704.34;4928375;29;20062;-50
2021/04/05 10:46:42;;;;;;;11.47;4.47;;;11.20;40.70;;;10.66;37.33;96681.03;4944905;29;20057;-54
2021/04/05 10:49:15;;;;;;;11.43;5.07;;;11.30;40.80;;;10.70;37.75;96687.63;4948601;29;20051;-51
2021/04/05 10:52:14;;;;;;;11.07;5.85;;;11.30;41.40;;;10.70;39.75;96685.81;4964390;29;20054;-49
2021/04/05 10:54:46;;;;;;;14.67;6.33;;;11.20;43.80;;;10.55;40.87;96693.00;4964142;28;20063;-48
2021/04/05 10:57:30;;;;;;;16.17;6.13;;;11.10;45.80;;;10.35;41.88;96684.72;4964265;29;20043;-46
2021/04/05 11:00:02;;;;;;;11.60;6.18;;;10.90;46.40;;;10.36;41.86;96705.81;4946647;29;20065;-49
2021/04/05 11:02:36;;;;;;;17.70;7.18;;;10.80;46.60;;;10.17;42.15;96680.53;4946860;29;20237;-47
2021/04/05 11:05:21;;;;;;;10.70;5.45;;;10.60;46.90;;;10.10;42.41;96684.97;4940471;29;20051;-52
2021/04/05 11:07:59;;;;;;;16.80;6.93;;;10.60;47.30;;;10.13;42.42;96692.56;4963959;29;20047;-51
2021/04/05 11:10:40;;;;;;;13.37;6.40;;;10.70;47.00;;;9.99;42.15;96704.00;4947308;29;20345;-49
2021/04/05 11:13:20;;;;;;;13.83;6.60;;;10.60;46.70;;;10.08;41.88;96696.75;4949037;29;20276;-48
2021/04/05 11:15:49;;;;;;;10.57;5.60;;;10.60;46.40;;;10.05;42.32;96666.06;4947692;29;20058;-49
2021/04/05 11:18:20;;;;;;;13.87;5.47;;;10.60;46.90;;;10.11;41.76;96675.97;4962380;29;20073;-54
2021/04/05 11:20:50;;;;;;;19.57;7.87;;;10.60;46.20;;;10.16;41.66;96676.25;4947017;29;20055;-51
2021/04/05 11:23:22;;;;;;;14.23;7.87;;;10.70;46.30;;;10.20;42.18;96648.28;4946890;29;20401;-51